Terminal Aerodrome Forecast
Issued by NWS Sioux Falls, SD

Home | Current Version | Previous Version | Text Only | Print | Product List | Glossary On
Versions: 1 2 3 4 5 6 7 8 9 10 11 12 13 14 15 16 17 18 19 20 21 22 23 24 25 26 27 28 29 30 31 32 33
000
FTUS43 KFSD 111100
TAFSUX
TAF
KSUX 111136Z 1112/1212 15012KT P6SM SCT040 OVC150
      TEMPO 1112/1114 4SM TSRA BKN025CB
     FM111400 18011KT P6SM SCT025 BKN120
     FM111900 18010KT P6SM SCT035 BKN250
     FM120000 14008KT P6SM BKN200
     FM120500 06007KT P6SM SCT050 OVC120
      TEMPO 1205/1209 4SM TSRA BKN030CB=

USA.gov is the U.S. government's official web portal to all federal, state and local government web resources and services.